createdAt,value
2022-11-02T00:01:40.726Z,82.62
2022-11-02T00:04:19.311Z,82.40
2022-11-02T00:06:48.805Z,82.32
2022-11-02T00:09:18.145Z,82.55
2022-11-02T00:11:47.572Z,82.40
2022-11-02T00:14:28.443Z,82.70
2022-11-02T00:16:57.944Z,82.67
2022-11-02T00:19:28.611Z,83.47
2022-11-02T00:21:58.980Z,83.11
2022-11-02T00:24:28.470Z,83.09
2022-11-02T00:26:58.402Z,83.11
2022-11-02T00:29:30.025Z,83.25
2022-11-02T00:32:03.319Z,83.15
2022-11-02T00:34:34.022Z,83.46
2022-11-02T00:37:03.744Z,84.31
2022-11-02T00:39:33.285Z,83.84
2022-11-02T00:42:02.830Z,83.84
2022-11-02T00:44:32.177Z,84.34
2022-11-02T00:47:01.768Z,84.18
2022-11-02T00:49:38.546Z,83.97
2022-11-02T00:52:09.202Z,84.08
2022-11-02T00:54:38.598Z,84.33
2022-11-02T00:57:08.344Z,84.14
2022-11-02T00:59:40.155Z,84.08
2022-11-02T01:02:10.607Z,83.83
2022-11-02T01:04:41.462Z,83.70
2022-11-02T01:07:10.983Z,83.80
2022-11-02T01:09:40.262Z,84.27
2022-11-02T01:12:09.936Z,83.53
2022-11-02T01:14:39.139Z,84.59
2022-11-02T01:17:09.456Z,84.19
2022-11-02T01:19:40.142Z,83.59
2022-11-02T01:22:10.057Z,83.66
2022-11-02T01:24:39.462Z,83.72
2022-11-02T01:27:08.911Z,83.11
2022-11-02T01:29:39.212Z,83.50
2022-11-02T01:32:08.743Z,84.23
2022-11-02T01:34:38.153Z,83.63
2022-11-02T01:37:09.116Z,84.17
2022-11-02T01:39:38.353Z,83.30
2022-11-02T01:42:19.621Z,83.60
2022-11-02T01:44:49.109Z,83.53
2022-11-02T01:47:23.865Z,83.38
2022-11-02T01:49:58.514Z,83.66
2022-11-02T01:52:32.639Z,84.29
2022-11-02T01:55:06.079Z,84.25
2022-11-02T01:57:36.984Z,84.04
2022-11-02T02:00:09.259Z,83.70
2022-11-02T02:02:49.766Z,84.03
2022-11-02T02:05:21.967Z,83.25
2022-11-02T02:07:55.058Z,83.73
2022-11-02T02:10:24.572Z,83.52
2022-11-02T02:12:54.087Z,84.64
2022-11-02T02:15:26.501Z,84.37
2022-11-02T02:18:01.600Z,83.78
2022-11-02T02:20:51.698Z,83.93
2022-11-02T02:23:55.895Z,83.73
2022-11-02T02:26:59.870Z,83.85
2022-11-02T02:29:45.639Z,83.26
2022-11-02T02:32:22.406Z,83.17
2022-11-02T02:34:56.468Z,83.39
2022-11-02T02:37:32.326Z,83.58
2022-11-02T02:40:07.179Z,83.73
2022-11-02T02:42:48.741Z,83.22
2022-11-02T02:45:25.936Z,83.09
2022-11-02T02:48:02.504Z,83.30
2022-11-02T02:50:38.588Z,83.26
2022-11-02T02:53:09.656Z,83.24
2022-11-02T02:55:44.569Z,83.03
2022-11-02T02:58:18.539Z,83.50
2022-11-02T03:00:49.993Z,83.33
2022-11-02T03:03:22.130Z,83.88
2022-11-02T03:06:11.612Z,83.36
2022-11-02T03:08:47.462Z,84.19
2022-11-02T03:11:19.306Z,83.61
2022-11-02T03:14:06.854Z,84.16
2022-11-02T03:17:04.378Z,84.06
2022-11-02T03:19:43.305Z,84.12
2022-11-02T03:22:22.519Z,84.85
2022-11-02T03:25:00.375Z,84.52
2022-11-02T03:27:41.235Z,83.79
2022-11-02T03:35:20.641Z,84.32
2022-11-02T03:37:57.008Z,86.84
2022-11-02T03:40:30.746Z,86.74
2022-11-02T03:43:05.655Z,87.00
2022-11-02T03:45:41.503Z,86.52
2022-11-02T03:48:13.914Z,86.61
2022-11-02T03:50:47.847Z,86.35
2022-11-02T03:53:23.895Z,86.42
2022-11-02T03:55:54.393Z,86.19
2022-11-02T03:58:23.909Z,85.82
2022-11-02T04:00:57.411Z,86.79
2022-11-02T04:03:26.912Z,86.30
2022-11-02T04:05:58.367Z,86.08
2022-11-02T04:08:38.141Z,86.27
2022-11-02T04:11:28.145Z,86.30
2022-11-02T04:14:20.096Z,85.98
2022-11-02T04:16:49.566Z,86.21
2022-11-02T04:19:27.800Z,86.55
2022-11-02T04:22:20.229Z,87.19
2022-11-02T04:25:11.483Z,86.65
2022-11-02T04:27:42.109Z,86.16
2022-11-02T04:30:13.553Z,85.57
2022-11-02T04:33:01.311Z,85.54
2022-11-02T04:35:35.386Z,85.26
2022-11-02T04:38:24.211Z,84.73
2022-11-02T04:41:14.040Z,84.16
2022-11-02T04:43:44.479Z,84.68
2022-11-02T04:46:16.333Z,85.31
2022-11-02T04:48:46.669Z,83.59
2022-11-02T04:51:17.149Z,84.55
2022-11-02T04:53:48.415Z,84.72
2022-11-02T04:56:18.766Z,84.10
2022-11-02T04:58:51.687Z,83.92
2022-11-02T05:01:22.123Z,83.61
2022-11-02T05:03:53.029Z,83.87
2022-11-02T05:06:24.937Z,83.84
2022-11-02T05:08:57.689Z,84.09
2022-11-02T05:11:28.121Z,84.01
2022-11-02T05:13:58.366Z,84.42
2022-11-02T05:16:27.825Z,84.15
2022-11-02T05:18:58.607Z,84.27
2022-11-02T05:21:28.914Z,84.64
2022-11-02T05:24:00.357Z,84.48
2022-11-02T05:26:30.127Z,84.62
2022-11-02T05:28:59.477Z,86.42
2022-11-02T05:31:28.938Z,87.71
2022-11-02T05:33:59.807Z,87.88
2022-11-02T05:36:29.356Z,86.62
2022-11-02T05:39:00.802Z,88.46
2022-11-02T05:41:30.529Z,87.70
2022-11-02T05:44:01.519Z,86.35
2022-11-02T05:46:33.614Z,86.41
2022-11-02T05:49:02.827Z,86.46
2022-11-02T05:51:32.392Z,85.92
2022-11-02T05:54:03.054Z,87.00
2022-11-02T05:56:32.487Z,86.59
2022-11-02T05:59:01.763Z,87.30
2022-11-02T06:01:31.356Z,86.71
2022-11-02T06:04:00.833Z,87.03
2022-11-02T06:06:30.190Z,86.58
2022-11-02T06:09:02.946Z,87.20
2022-11-02T06:11:37.845Z,86.84
2022-11-02T06:14:07.085Z,86.21
2022-11-02T06:16:36.500Z,86.67
2022-11-02T06:19:05.859Z,85.97
2022-11-02T06:21:35.500Z,84.78
2022-11-02T06:24:04.921Z,85.01
2022-11-02T06:26:34.463Z,86.18
2022-11-02T06:29:05.213Z,87.22
2022-11-02T06:31:34.747Z,86.79
2022-11-02T06:34:04.053Z,86.84
2022-11-02T06:36:33.542Z,87.63
2022-11-02T06:39:03.118Z,87.90
2022-11-02T06:41:32.720Z,87.95
2022-11-02T06:44:03.453Z,87.28
2022-11-02T06:46:32.945Z,86.60
2022-11-02T06:49:02.484Z,87.03
2022-11-02T06:51:32.129Z,86.96
2022-11-02T06:54:07.428Z,87.11
2022-11-02T06:56:38.182Z,87.55
2022-11-02T06:59:08.891Z,86.89
2022-11-02T07:01:38.593Z,87.50
2022-11-02T07:04:08.002Z,87.67
2022-11-02T07:06:37.590Z,87.72
2022-11-02T07:09:06.881Z,86.85
2022-11-02T07:11:36.389Z,86.74
2022-11-02T07:14:07.113Z,87.34
2022-11-02T07:16:36.582Z,87.09
2022-11-02T07:19:06.155Z,86.69
2022-11-02T07:21:35.783Z,86.72
2022-11-02T07:24:05.275Z,86.57
2022-11-02T07:26:34.710Z,86.89
2022-11-02T07:29:03.886Z,87.25
2022-11-02T07:31:34.785Z,86.16
2022-11-02T07:34:04.230Z,85.83
2022-11-02T07:36:33.708Z,85.94
2022-11-02T07:39:02.996Z,86.66
2022-11-02T07:41:32.616Z,86.31
2022-11-02T07:44:02.322Z,86.26
2022-11-02T07:46:53.314Z,86.30
2022-11-02T07:49:22.664Z,86.13
2022-11-02T07:51:52.168Z,85.74
2022-11-02T07:54:21.428Z,85.17
2022-11-02T07:56:50.955Z,84.86
2022-11-02T07:59:20.347Z,84.96
2022-11-02T08:01:50.046Z,83.90
2022-11-02T08:06:55.035Z,83.38
2022-11-02T08:09:24.366Z,82.54
2022-11-02T08:12:11.642Z,82.88
2022-11-02T08:14:40.948Z,82.89
2022-11-02T08:17:10.594Z,81.86
2022-11-02T08:19:41.607Z,82.28
2022-11-02T08:22:10.919Z,80.46
2022-11-02T08:24:40.442Z,79.55
2022-11-02T08:27:09.776Z,79.34
2022-11-02T08:29:39.312Z,78.74
2022-11-02T08:32:08.549Z,79.21
2022-11-02T08:34:38.081Z,79.00
2022-11-02T08:37:10.680Z,78.58
2022-11-02T08:39:40.381Z,77.55
2022-11-02T08:42:09.840Z,77.42
2022-11-02T08:44:42.496Z,77.32
2022-11-02T08:47:12.335Z,77.78
2022-11-02T08:49:41.885Z,76.59
2022-11-02T08:52:12.755Z,75.73
2022-11-02T08:54:42.260Z,76.16
2022-11-02T08:57:11.600Z,75.88
2022-11-02T08:59:41.292Z,74.71
2022-11-02T09:02:12.369Z,73.95
2022-11-02T09:04:42.077Z,73.82
2022-11-02T09:07:12.705Z,72.52
2022-11-02T09:09:42.350Z,72.40
2022-11-02T09:12:11.581Z,73.18
2022-11-02T09:14:41.229Z,72.28
2022-11-02T09:17:10.656Z,70.48
2022-11-02T09:19:40.366Z,72.00
2022-11-02T09:22:11.093Z,73.23
2022-11-02T09:24:40.703Z,71.25
2022-11-02T09:27:09.967Z,70.42
2022-11-02T09:29:39.661Z,70.30
2022-11-02T09:32:09.093Z,69.44
2022-11-02T09:34:38.753Z,67.20
2022-11-02T09:37:08.182Z,65.71
2022-11-02T09:39:39.138Z,66.43
2022-11-02T09:42:20.690Z,64.55
2022-11-02T09:44:55.789Z,63.14
2022-11-02T09:48:10.935Z,64.43
2022-11-02T09:50:22.144Z,64.93
2022-11-02T09:52:56.726Z,63.57
2022-11-02T09:55:33.443Z,63.21
2022-11-02T09:58:08.959Z,64.20
2022-11-02T10:00:41.940Z,60.85
2022-11-02T10:03:22.038Z,60.92
2022-11-02T10:05:57.339Z,57.89
2022-11-02T10:08:38.543Z,61.52
2022-11-02T10:11:22.021Z,57.07
2022-11-02T10:13:56.941Z,59.17
2022-11-02T10:16:32.003Z,58.94
2022-11-02T10:19:04.384Z,58.97
2022-11-02T10:21:35.436Z,55.55
2022-11-02T10:24:17.636Z,55.86
2022-11-02T10:26:50.096Z,43.39
2022-11-02T10:29:25.347Z,41.67
2022-11-02T10:31:54.953Z,41.55
2022-11-02T10:34:28.313Z,45.30
2022-11-02T10:37:09.040Z,48.33
2022-11-02T10:39:47.299Z,46.03
2022-11-02T10:42:37.130Z,42.99
2022-11-02T10:45:22.395Z,33.77
2022-11-02T10:48:04.401Z,36.37
2022-11-02T10:50:47.800Z,39.92
2022-11-02T10:53:40.003Z,38.33
2022-11-02T10:56:15.835Z,44.17
2022-11-02T10:58:58.462Z,42.33
2022-11-02T11:01:28.404Z,42.27
2022-11-02T11:04:00.514Z,41.54
2022-11-02T11:06:32.385Z,44.25
2022-11-02T11:09:05.172Z,42.80
2022-11-02T11:11:37.105Z,43.80
2022-11-02T11:20:09.264Z,46.27
2022-11-02T11:22:40.350Z,50.00
2022-11-02T11:25:27.430Z,54.83
2022-11-02T11:27:58.729Z,55.83
2022-11-02T11:30:59.660Z,55.41
2022-11-02T11:33:23.171Z,55.90
2022-11-02T11:35:53.585Z,60.51
2022-11-02T11:38:26.282Z,63.91
2022-11-02T11:40:58.802Z,68.56
2022-11-02T11:43:30.426Z,69.85
2022-11-02T11:46:06.358Z,69.42
2022-11-02T11:48:40.186Z,70.63
2022-11-02T11:51:33.888Z,68.86
2022-11-02T11:54:22.338Z,68.28
2022-11-02T11:56:53.336Z,69.35
2022-11-02T11:59:32.223Z,70.91
2022-11-02T12:02:04.144Z,72.44
2022-11-02T12:04:35.713Z,70.54
2022-11-02T12:07:36.807Z,70.54
2022-11-02T12:10:14.933Z,66.83
2022-11-02T12:13:01.891Z,59.75
2022-11-02T12:15:45.576Z,63.38
2022-11-02T12:18:34.586Z,64.53
2022-11-02T12:21:39.646Z,63.27
2022-11-02T12:24:40.291Z,65.51
2022-11-02T12:27:25.307Z,61.27
2022-11-02T12:30:22.492Z,60.54
2022-11-02T12:33:12.997Z,61.82
2022-11-02T12:36:02.167Z,53.78
2022-11-02T12:38:53.746Z,55.97
2022-11-02T12:41:38.967Z,63.75
2022-11-02T12:44:22.333Z,66.26
2022-11-02T12:46:58.506Z,67.75
2022-11-02T12:49:41.965Z,68.78
2022-11-02T12:52:27.953Z,69.25
2022-11-02T12:55:00.514Z,68.56
2022-11-02T12:57:34.445Z,69.60
2022-11-02T13:00:07.130Z,68.32
2022-11-02T13:02:49.133Z,59.46
2022-11-02T13:05:21.460Z,50.30
2022-11-02T13:08:08.275Z,46.25
2022-11-02T13:10:50.677Z,46.97
2022-11-02T13:13:29.644Z,45.12
2022-11-02T13:16:00.370Z,42.32
2022-11-02T13:18:37.331Z,42.09
2022-11-02T13:21:07.962Z,43.91
2022-11-02T13:23:44.412Z,41.97
2022-11-02T13:26:21.850Z,43.55
2022-11-02T13:28:55.106Z,42.12
2022-11-02T13:31:30.073Z,42.98
2022-11-02T13:34:03.550Z,42.72
2022-11-02T13:36:37.284Z,41.70
2022-11-02T13:39:17.914Z,41.58
2022-11-02T13:42:24.277Z,42.83
2022-11-02T13:45:19.994Z,45.08
2022-11-02T13:48:45.295Z,47.25
2022-11-02T13:51:25.193Z,49.76
2022-11-02T13:53:59.716Z,50.76
2022-11-02T13:56:31.350Z,51.84
2022-11-02T13:59:04.661Z,53.06
2022-11-02T14:01:36.633Z,52.84
2022-11-02T14:04:09.141Z,53.92
2022-11-02T14:06:49.842Z,57.37
2022-11-02T14:09:30.439Z,58.40
2022-11-02T14:12:30.022Z,61.15
2022-11-02T14:15:47.777Z,61.62
2022-11-02T14:18:30.978Z,63.38
2022-11-02T14:21:21.515Z,64.48
2022-11-02T14:23:50.864Z,66.06
2022-11-02T14:26:34.608Z,66.30
2022-11-02T14:29:38.553Z,67.80
2022-11-02T14:32:16.686Z,67.95
2022-11-02T14:35:06.874Z,68.78
2022-11-02T14:38:00.857Z,68.24
2022-11-02T14:40:39.754Z,68.92
2022-11-02T14:43:47.655Z,68.71
2022-11-02T14:46:34.466Z,67.75
2022-11-02T14:49:05.568Z,69.22
2022-11-02T14:51:37.637Z,69.14
2022-11-02T14:54:16.089Z,70.24
2022-11-02T14:56:52.128Z,69.84
2022-11-02T14:59:26.616Z,69.88
2022-11-02T15:02:01.012Z,71.24
2022-11-02T15:04:33.116Z,71.14
2022-11-02T15:07:06.828Z,72.75
2022-11-02T15:09:57.323Z,72.83
2022-11-02T15:12:38.694Z,73.36
2022-11-02T15:15:31.393Z,72.94
2022-11-02T15:18:33.403Z,73.17
2022-11-02T15:21:27.126Z,73.03
2022-11-02T15:24:16.962Z,72.76
2022-11-02T15:26:50.751Z,73.31
2022-11-02T15:29:36.548Z,72.99
2022-11-02T15:32:10.000Z,73.21
2022-11-02T15:34:45.137Z,73.27
2022-11-02T15:37:20.363Z,72.94
2022-11-02T15:39:51.412Z,72.58
2022-11-02T15:42:30.761Z,72.33
2022-11-02T15:45:42.108Z,72.19
2022-11-02T15:51:17.691Z,71.80
2022-11-02T15:54:10.524Z,73.21
2022-11-02T15:57:10.500Z,71.92
2022-11-02T16:00:15.142Z,72.33
2022-11-02T16:02:47.863Z,72.61
2022-11-02T16:05:25.707Z,73.13
2022-11-02T16:08:10.766Z,73.65
2022-11-02T16:10:40.453Z,73.18
2022-11-02T16:13:18.343Z,73.05
2022-11-02T16:15:49.011Z,73.31
2022-11-02T16:18:26.614Z,73.63
2022-11-02T16:20:59.662Z,73.32
2022-11-02T16:23:32.761Z,73.34
2022-11-02T16:26:04.594Z,74.03
2022-11-02T16:28:35.545Z,73.81
2022-11-02T16:31:15.714Z,73.33
2022-11-02T16:33:48.995Z,73.40
2022-11-02T16:36:21.118Z,73.55
2022-11-02T16:38:59.094Z,73.32
2022-11-02T16:41:30.322Z,72.94
2022-11-02T16:44:02.592Z,73.44
2022-11-02T16:46:41.136Z,73.66
2022-11-02T16:49:18.571Z,73.28
2022-11-02T16:51:53.112Z,73.86
2022-11-02T16:54:39.435Z,73.87
2022-11-02T16:57:15.166Z,73.42
2022-11-02T16:59:51.883Z,74.45
2022-11-02T17:02:26.670Z,73.32
2022-11-02T17:05:02.461Z,73.10
2022-11-02T17:07:39.796Z,75.05
2022-11-02T17:10:20.291Z,75.12
2022-11-02T17:12:50.706Z,75.08
2022-11-02T17:15:23.146Z,75.02
2022-11-02T17:18:12.542Z,75.00
2022-11-02T17:20:42.592Z,75.63
2022-11-02T17:23:31.403Z,75.11
2022-11-02T17:26:25.603Z,75.89
2022-11-02T17:28:55.999Z,76.17
2022-11-02T17:31:27.390Z,76.57
2022-11-02T17:33:58.191Z,75.63
2022-11-02T17:36:28.210Z,76.46
2022-11-02T17:39:02.258Z,75.97
2022-11-02T17:41:57.854Z,75.61
2022-11-02T17:44:26.968Z,75.07
2022-11-02T17:46:56.936Z,76.82
2022-11-02T17:49:26.043Z,77.23
2022-11-02T17:51:55.345Z,76.70
2022-11-02T17:54:24.517Z,77.39
2022-11-02T17:56:55.183Z,77.29
2022-11-02T17:59:24.187Z,77.38
2022-11-02T18:01:53.819Z,78.42
2022-11-02T18:04:23.158Z,78.70
2022-11-02T18:06:52.476Z,78.61
2022-11-02T18:09:24.109Z,79.04
2022-11-02T18:11:54.843Z,78.91
2022-11-02T18:14:23.943Z,78.71
2022-11-02T18:16:53.507Z,78.68
2022-11-02T18:19:22.857Z,80.81
2022-11-02T18:21:52.328Z,79.33
2022-11-02T18:24:21.575Z,79.82
2022-11-02T18:26:51.097Z,80.63
2022-11-02T18:29:21.606Z,80.38
2022-11-02T18:31:51.313Z,80.39
2022-11-02T18:34:20.340Z,80.45
2022-11-02T18:36:50.084Z,79.38
2022-11-02T18:39:19.383Z,79.15
2022-11-02T18:41:48.817Z,78.95
2022-11-02T18:44:17.946Z,77.86
2022-11-02T18:46:49.051Z,77.63
2022-11-02T18:49:18.060Z,76.83
2022-11-02T18:51:47.770Z,76.92
2022-11-02T18:54:17.035Z,77.86
2022-11-02T18:56:46.606Z,76.82
2022-11-02T18:59:15.665Z,76.63
2022-11-02T19:01:45.232Z,76.34
2022-11-02T19:04:17.826Z,76.66
2022-11-02T19:07:16.202Z,76.13
2022-11-02T19:09:45.795Z,75.86
2022-11-02T19:12:18.335Z,76.01
2022-11-02T19:14:49.627Z,76.70
2022-11-02T19:17:20.002Z,75.84
2022-11-02T19:19:51.755Z,75.83
2022-11-02T19:22:23.226Z,76.42
2022-11-02T19:24:53.229Z,76.15
2022-11-02T19:27:24.089Z,75.96
2022-11-02T19:29:53.636Z,76.38
2022-11-02T19:32:23.165Z,76.96
2022-11-02T19:34:53.593Z,76.39
2022-11-02T19:37:23.200Z,76.78
2022-11-02T19:39:52.348Z,76.82
2022-11-02T19:42:21.671Z,76.50
2022-11-02T19:44:50.826Z,76.57
2022-11-02T19:47:20.280Z,76.91
2022-11-02T19:49:49.435Z,76.54
2022-11-02T19:52:20.365Z,75.82
2022-11-02T19:54:49.531Z,76.11
2022-11-02T19:57:18.932Z,75.28
2022-11-02T19:59:48.108Z,75.84
2022-11-02T20:02:17.516Z,75.12
2022-11-02T20:04:47.532Z,75.19
2022-11-02T20:07:16.862Z,75.17
2022-11-02T20:09:47.458Z,75.40
2022-11-02T20:12:16.745Z,75.21
2022-11-02T20:14:45.930Z,74.67
2022-11-02T20:17:31.364Z,73.87
2022-11-02T20:20:04.855Z,74.44
2022-11-02T20:22:34.232Z,75.25
2022-11-02T20:25:05.517Z,76.05
2022-11-02T20:27:37.193Z,77.09
2022-11-02T20:30:06.943Z,77.93
2022-11-02T20:32:36.542Z,78.09
2022-11-02T20:35:11.000Z,78.58
2022-11-02T20:37:42.745Z,78.65
2022-11-02T20:40:14.087Z,77.80
2022-11-02T20:42:43.665Z,78.11
2022-11-02T20:45:12.777Z,77.89
2022-11-02T20:47:42.070Z,79.07
2022-11-02T20:50:16.488Z,79.13
2022-11-02T20:52:46.953Z,79.28
2022-11-02T20:55:17.672Z,78.60
2022-11-02T20:57:50.111Z,79.83
2022-11-02T21:00:20.306Z,79.51
2022-11-02T21:02:50.112Z,79.50
2022-11-02T21:05:19.363Z,79.04
2022-11-02T21:07:50.231Z,79.40
2022-11-02T21:10:20.756Z,78.76
2022-11-02T21:13:07.871Z,81.33
2022-11-02T21:15:37.447Z,79.67
2022-11-02T21:18:07.064Z,81.00
2022-11-02T21:20:37.845Z,80.99
2022-11-02T21:23:08.262Z,81.69
2022-11-02T21:25:38.986Z,79.95
2022-11-02T21:28:08.267Z,80.63
2022-11-02T21:30:37.319Z,80.37
2022-11-02T21:33:06.935Z,80.71
2022-11-02T21:35:36.377Z,80.74
2022-11-02T21:38:07.852Z,80.29
2022-11-02T21:40:38.568Z,79.79
2022-11-02T21:43:08.234Z,79.22
2022-11-02T21:45:38.189Z,78.66
2022-11-02T21:48:07.868Z,80.06
2022-11-02T21:50:36.900Z,79.49
2022-11-02T21:53:06.503Z,79.79
2022-11-02T21:55:37.280Z,79.55
2022-11-02T21:58:06.667Z,80.12
2022-11-02T22:00:53.062Z,78.83
2022-11-02T22:03:22.612Z,78.84
2022-11-02T22:05:57.403Z,78.56
2022-11-02T22:08:41.628Z,79.46
2022-11-02T22:11:15.297Z,78.58
2022-11-02T22:13:45.501Z,78.98
2022-11-02T22:16:17.606Z,77.92
2022-11-02T22:18:48.759Z,77.67
2022-11-02T22:21:19.471Z,77.58
2022-11-02T22:23:50.244Z,76.86
2022-11-02T22:26:22.316Z,77.15
2022-11-02T22:28:52.474Z,77.52
2022-11-02T22:31:23.936Z,77.42
2022-11-02T22:33:54.907Z,77.05
2022-11-02T22:36:26.408Z,78.14
2022-11-02T22:38:56.114Z,77.33
2022-11-02T22:41:28.700Z,77.23
2022-11-02T22:43:59.974Z,77.49
2022-11-02T22:46:33.353Z,77.41
2022-11-02T22:49:04.741Z,77.24
2022-11-02T22:51:35.777Z,76.85
2022-11-02T22:54:07.457Z,77.92
2022-11-02T22:56:38.038Z,77.11
2022-11-02T22:59:07.785Z,76.78
2022-11-02T23:01:37.974Z,77.02
2022-11-02T23:04:08.538Z,76.49
2022-11-02T23:06:37.703Z,77.07
2022-11-02T23:09:07.266Z,76.87
2022-11-02T23:11:38.009Z,76.27
2022-11-02T23:14:08.719Z,75.43
2022-11-02T23:16:39.848Z,76.37
2022-11-02T23:19:30.629Z,75.96
2022-11-02T23:22:18.853Z,75.20
2022-11-02T23:25:06.831Z,75.53
2022-11-02T23:27:59.527Z,75.11
2022-11-02T23:30:50.499Z,75.81
2022-11-02T23:33:20.246Z,74.99
2022-11-02T23:36:07.074Z,75.40
2022-11-02T23:38:50.139Z,75.81
2022-11-02T23:41:20.579Z,75.78
2022-11-02T23:43:51.212Z,75.20
2022-11-02T23:46:20.570Z,76.07
2022-11-02T23:48:52.819Z,76.41
2022-11-02T23:51:40.673Z,76.65
2022-11-02T23:54:27.498Z,77.24
2022-11-02T23:56:56.904Z,76.43
2022-11-02T23:59:27.383Z,76.91
